sensor_id;sensor_type;location;lat;lon;timestamp;pressure;altitude;pressure_sealevel;temperature;humidity
8039;BME280;4062;49.844;8.120;2023-04-29T00:01:28;98987.41;;;14.47;57.38
8039;BME280;4062;49.844;8.120;2023-04-29T00:03:30;98986.56;;;14.46;57.42
8039;BME280;4062;49.844;8.120;2023-04-29T00:05:36;98982.97;;;14.47;57.35
8039;BME280;4062;49.844;8.120;2023-04-29T00:07:37;98979.44;;;14.47;57.40
8039;BME280;4062;49.844;8.120;2023-04-29T00:09:39;98982.09;;;14.47;57.45
8039;BME280;4062;49.844;8.120;2023-04-29T00:11:40;98983.81;;;14.48;57.40
8039;BME280;4062;49.844;8.120;2023-04-29T00:13:41;98985.63;;;14.47;57.41
8039;BME280;4062;49.844;8.120;2023-04-29T00:15:43;98989.16;;;14.48;57.42
8039;BME280;4062;49.844;8.120;2023-04-29T00:17:45;98986.50;;;14.48;57.48
8039;BME280;4062;49.844;8.120;2023-04-29T00:19:47;98990.03;;;14.48;57.25
8039;BME280;4062;49.844;8.120;2023-04-29T00:21:48;98985.63;;;14.47;57.46
8039;BME280;4062;49.844;8.120;2023-04-29T00:23:50;98982.09;;;14.47;57.38
8039;BME280;4062;49.844;8.120;2023-04-29T00:25:51;98982.97;;;14.47;57.45
8039;BME280;4062;49.844;8.120;2023-04-29T00:27:53;98987.41;;;14.47;57.48
8039;BME280;4062;49.844;8.120;2023-04-29T00:29:55;98990.06;;;14.47;57.52
8039;BME280;4062;49.844;8.120;2023-04-29T00:31:57;98987.41;;;14.47;57.34
8039;BME280;4062;49.844;8.120;2023-04-29T00:33:58;98987.41;;;14.47;57.50
8039;BME280;4062;49.844;8.120;2023-04-29T00:36:00;98988.28;;;14.47;57.43
8039;BME280;4062;49.844;8.120;2023-04-29T00:38:02;98995.34;;;14.48;57.47
8039;BME280;4062;49.844;8.120;2023-04-29T00:40:04;98989.22;;;14.46;57.39
8039;BME280;4062;49.844;8.120;2023-04-29T00:42:06;98993.63;;;14.47;57.41
8039;BME280;4062;49.844;8.120;2023-04-29T00:44:08;98990.06;;;14.47;57.46
8039;BME280;4062;49.844;8.120;2023-04-29T00:46:10;98993.63;;;14.47;57.48
8039;BME280;4062;49.844;8.120;2023-04-29T00:48:12;98988.28;;;14.47;57.43
8039;BME280;4062;49.844;8.120;2023-04-29T00:50:15;98991.81;;;14.48;57.53
8039;BME280;4062;49.844;8.120;2023-04-29T00:52:17;98992.72;;;14.47;57.41
8039;BME280;4062;49.844;8.120;2023-04-29T00:54:19;98993.63;;;14.47;57.36
8039;BME280;4062;49.844;8.120;2023-04-29T00:56:21;98992.72;;;14.47;57.34
8039;BME280;4062;49.844;8.120;2023-04-29T00:58:23;98993.63;;;14.47;57.49
8039;BME280;4062;49.844;8.120;2023-04-29T01:00:34;99000.72;;;14.47;57.43
8039;BME280;4062;49.844;8.120;2023-04-29T01:02:35;99001.59;;;14.47;57.41
8039;BME280;4062;49.844;8.120;2023-04-29T01:04:37;98997.19;;;14.46;57.40
8039;BME280;4062;49.844;8.120;2023-04-29T01:06:49;99000.72;;;14.47;57.42
8039;BME280;4062;49.844;8.120;2023-04-29T01:11:10;99004.25;;;14.47;57.41
8039;BME280;4062;49.844;8.120;2023-04-29T01:13:21;98998.94;;;14.47;57.35
8039;BME280;4062;49.844;8.120;2023-04-29T01:18:11;98998.06;;;14.47;57.35
8039;BME280;4062;49.844;8.120;2023-04-29T01:20:20;99000.72;;;14.47;57.28
8039;BME280;4062;49.844;8.120;2023-04-29T01:22:23;99003.38;;;14.47;57.43
8039;BME280;4062;49.844;8.120;2023-04-29T01:24:24;99001.63;;;14.46;57.33
8039;BME280;4062;49.844;8.120;2023-04-29T01:26:26;99003.38;;;14.47;57.38
8039;BME280;4062;49.844;8.120;2023-04-29T01:31:43;99012.22;;;14.47;57.46
8039;BME280;4062;49.844;8.120;2023-04-29T01:34:21;99007.75;;;14.48;57.41
8039;BME280;4062;49.844;8.120;2023-04-29T01:41:14;99014.00;;;14.47;57.35
8039;BME280;4062;49.844;8.120;2023-04-29T01:43:21;99006.03;;;14.47;57.48
8039;BME280;4062;49.844;8.120;2023-04-29T01:45:26;99003.38;;;14.47;57.50
8039;BME280;4062;49.844;8.120;2023-04-29T01:47:29;98998.94;;;14.47;57.42
8039;BME280;4062;49.844;8.120;2023-04-29T01:49:35;98996.28;;;14.47;57.45
8039;BME280;4062;49.844;8.120;2023-04-29T01:51:37;98999.78;;;14.48;57.40
8039;BME280;4062;49.844;8.120;2023-04-29T01:53:39;99003.38;;;14.47;57.49
8039;BME280;4062;49.844;8.120;2023-04-29T01:55:43;99000.72;;;14.47;57.41
8039;BME280;4062;49.844;8.120;2023-04-29T01:57:57;99006.03;;;14.47;57.35
8039;BME280;4062;49.844;8.120;2023-04-29T02:00:33;99010.41;;;14.48;57.50
8039;BME280;4062;49.844;8.120;2023-04-29T02:02:35;99007.84;;;14.46;57.49
8039;BME280;4062;49.844;8.120;2023-04-29T02:04:47;99010.50;;;14.46;57.33
8039;BME280;4062;49.844;8.120;2023-04-29T02:06:50;99013.06;;;14.48;57.28
8039;BME280;4062;49.844;8.120;2023-04-29T02:08:53;99021.13;;;14.46;57.44
8039;BME280;4062;49.844;8.120;2023-04-29T02:10:56;99008.69;;;14.47;57.47
8039;BME280;4062;49.844;8.120;2023-04-29T02:13:08;99010.50;;;14.46;57.40
8039;BME280;4062;49.844;8.120;2023-04-29T02:15:12;99009.56;;;14.47;57.54
8039;BME280;4062;49.844;8.120;2023-04-29T02:17:14;99005.19;;;14.46;57.43
8039;BME280;4062;49.844;8.120;2023-04-29T02:19:17;99006.03;;;14.47;57.54
8039;BME280;4062;49.844;8.120;2023-04-29T02:21:18;99018.47;;;14.46;57.53
8039;BME280;4062;49.844;8.120;2023-04-29T02:23:20;99019.31;;;14.47;57.46
8039;BME280;4062;49.844;8.120;2023-04-29T02:25:21;99018.47;;;14.46;57.53
8039;BME280;4062;49.844;8.120;2023-04-29T02:27:22;99018.47;;;14.46;57.37
8039;BME280;4062;49.844;8.120;2023-04-29T02:29:24;99019.31;;;14.47;57.48
8039;BME280;4062;49.844;8.120;2023-04-29T02:31:28;99029.94;;;14.47;57.48
8039;BME280;4062;49.844;8.120;2023-04-29T02:33:30;99029.94;;;14.47;57.45
8039;BME280;4062;49.844;8.120;2023-04-29T02:35:32;99026.44;;;14.46;57.41
8039;BME280;4062;49.844;8.120;2023-04-29T02:37:33;99034.41;;;14.46;57.44
8039;BME280;4062;49.844;8.120;2023-04-29T02:39:35;99032.59;;;14.47;57.40
8039;BME280;4062;49.844;8.120;2023-04-29T02:41:36;99037.91;;;14.47;57.67
8039;BME280;4062;49.844;8.120;2023-04-29T02:43:38;99040.56;;;14.47;57.46
8039;BME280;4062;49.844;8.120;2023-04-29T02:45:39;99039.72;;;14.46;57.41
8039;BME280;4062;49.844;8.120;2023-04-29T02:47:41;99037.91;;;14.47;57.38
8039;BME280;4062;49.844;8.120;2023-04-29T02:50:01;99035.25;;;14.47;57.39
8039;BME280;4062;49.844;8.120;2023-04-29T02:52:21;99035.25;;;14.47;57.42
8039;BME280;4062;49.844;8.120;2023-04-29T02:54:23;99031.75;;;14.46;57.57
8039;BME280;4062;49.844;8.120;2023-04-29T02:56:24;99037.06;;;14.46;57.39
8039;BME280;4062;49.844;8.120;2023-04-29T02:58:26;99037.91;;;14.47;57.48
8039;BME280;4062;49.844;8.120;2023-04-29T03:00:27;99035.25;;;14.47;57.61
8039;BME280;4062;49.844;8.120;2023-04-29T03:02:29;99037.91;;;14.47;57.34
8039;BME280;4062;49.844;8.120;2023-04-29T03:04:33;99037.91;;;14.47;57.52
8039;BME280;4062;49.844;8.120;2023-04-29T03:06:34;99044.13;;;14.47;57.49
8039;BME280;4062;49.844;8.120;2023-04-29T03:08:36;99040.56;;;14.47;57.42
8039;BME280;4062;49.844;8.120;2023-04-29T03:10:37;99036.19;;;14.46;57.60
8039;BME280;4062;49.844;8.120;2023-04-29T03:12:39;99038.81;;;14.47;57.55
8039;BME280;4062;49.844;8.120;2023-04-29T03:14:41;99039.72;;;14.46;57.62
8039;BME280;4062;49.844;8.120;2023-04-29T03:16:42;99042.38;;;14.46;57.42
8039;BME280;4062;49.844;8.120;2023-04-29T03:18:44;99040.56;;;14.47;57.39
8039;BME280;4062;49.844;8.120;2023-04-29T03:20:46;99042.38;;;14.46;57.43
8039;BME280;4062;49.844;8.120;2023-04-29T03:22:47;99042.38;;;14.46;57.51
8039;BME280;4062;49.844;8.120;2023-04-29T03:24:48;99049.44;;;14.47;57.54
8039;BME280;4062;49.844;8.120;2023-04-29T03:26:50;99046.78;;;14.47;57.56
8039;BME280;4062;49.844;8.120;2023-04-29T03:28:54;99053.03;;;14.46;57.40
8039;BME280;4062;49.844;8.120;2023-04-29T03:30:56;99057.47;;;14.46;57.50
8039;BME280;4062;49.844;8.120;2023-04-29T03:32:59;99052.09;;;14.47;57.45
8039;BME280;4062;49.844;8.120;2023-04-29T03:35:02;99046.81;;;14.46;57.50
8039;BME280;4062;49.844;8.120;2023-04-29T03:37:28;99053.88;;;14.47;57.56
8039;BME280;4062;49.844;8.120;2023-04-29T03:39:39;99056.53;;;14.47;57.53
8039;BME280;4062;49.844;8.120;2023-04-29T03:41:41;99051.22;;;14.47;57.47
8039;BME280;4062;49.844;8.120;2023-04-29T03:43:43;99059.19;;;14.47;57.50
8039;BME280;4062;49.844;8.120;2023-04-29T03:45:46;99059.19;;;14.47;57.48
8039;BME280;4062;49.844;8.120;2023-04-29T03:47:51;99062.78;;;14.46;57.51
8039;BME280;4062;49.844;8.120;2023-04-29T03:49:55;99065.38;;;14.47;57.48
8039;BME280;4062;49.844;8.120;2023-04-29T03:51:56;99067.16;;;14.47;57.40
8039;BME280;4062;49.844;8.120;2023-04-29T03:53:58;99065.44;;;14.46;57.50
8039;BME280;4062;49.844;8.120;2023-04-29T03:56:00;99064.50;;;14.47;57.41
8039;BME280;4062;49.844;8.120;2023-04-29T03:58:01;99064.59;;;14.45;57.55
8039;BME280;4062;49.844;8.120;2023-04-29T04:00:04;99072.47;;;14.47;57.38
8039;BME280;4062;49.844;8.120;2023-04-29T04:02:15;99072.47;;;14.47;57.46
8039;BME280;4062;49.844;8.120;2023-04-29T04:04:17;99074.28;;;14.46;57.47
8039;BME280;4062;49.844;8.120;2023-04-29T04:06:21;99076.06;;;14.46;57.57
8039;BME280;4062;49.844;8.120;2023-04-29T04:08:23;99082.25;;;14.46;57.39
8039;BME280;4062;49.844;8.120;2023-04-29T04:10:40;99082.19;;;14.48;57.53
8039;BME280;4062;49.844;8.120;2023-04-29T04:12:52;99087.56;;;14.46;57.50
8039;BME280;4062;49.844;8.120;2023-04-29T04:14:55;99088.44;;;14.47;57.50
8039;BME280;4062;49.844;8.120;2023-04-29T04:16:57;99082.25;;;14.46;57.47
8039;BME280;4062;49.844;8.120;2023-04-29T04:18:59;99088.44;;;14.47;57.50
8039;BME280;4062;49.844;8.120;2023-04-29T04:21:05;99092.91;;;14.46;57.41
8039;BME280;4062;49.844;8.120;2023-04-29T04:23:07;99088.44;;;14.47;57.38
8039;BME280;4062;49.844;8.120;2023-04-29T04:25:09;99093.75;;;14.47;57.45
8039;BME280;4062;49.844;8.120;2023-04-29T04:27:11;99092.91;;;14.46;57.56
8039;BME280;4062;49.844;8.120;2023-04-29T04:29:18;99099.06;;;14.47;57.40
8039;BME280;4062;49.844;8.120;2023-04-29T04:31:34;99099.06;;;14.47;57.63
8039;BME280;4062;49.844;8.120;2023-04-29T04:33:36;99095.56;;;14.46;57.51
8039;BME280;4062;49.844;8.120;2023-04-29T04:35:38;99092.91;;;14.46;57.44
8039;BME280;4062;49.844;8.120;2023-04-29T04:37:40;99103.53;;;14.46;57.43
8039;BME280;4062;49.844;8.120;2023-04-29T04:39:41;99101.72;;;14.47;57.63
8039;BME280;4062;49.844;8.120;2023-04-29T04:41:46;99106.19;;;14.46;57.46
8039;BME280;4062;49.844;8.120;2023-04-29T04:43:48;99102.66;;;14.46;57.54
8039;BME280;4062;49.844;8.120;2023-04-29T04:45:57;99107.97;;;14.46;57.47
8039;BME280;4062;49.844;8.120;2023-04-29T04:47:59;99115.00;;;14.47;57.43
8039;BME280;4062;49.844;8.120;2023-04-29T04:50:04;99118.59;;;14.46;57.42
8039;BME280;4062;49.844;8.120;2023-04-29T04:52:06;99122.97;;;14.47;57.54
8039;BME280;4062;49.844;8.120;2023-04-29T04:54:08;99121.25;;;14.46;57.48
8039;BME280;4062;49.844;8.120;2023-04-29T04:56:09;99125.63;;;14.47;57.40
8039;BME280;4062;49.844;8.120;2023-04-29T04:58:16;99124.78;;;14.46;57.56
8039;BME280;4062;49.844;8.120;2023-04-29T05:00:17;99130.09;;;14.46;57.60
8039;BME280;4062;49.844;8.120;2023-04-29T05:02:20;99126.56;;;14.46;57.55
8039;BME280;4062;49.844;8.120;2023-04-29T05:04:22;99130.09;;;14.46;57.39
8039;BME280;4062;49.844;8.120;2023-04-29T05:06:23;99131.88;;;14.46;57.51
8039;BME280;4062;49.844;8.120;2023-04-29T05:08:25;99133.63;;;14.47;57.48
8039;BME280;4062;49.844;8.120;2023-04-29T05:10:29;99138.94;;;14.47;57.38
8039;BME280;4062;49.844;8.120;2023-04-29T05:12:34;99141.59;;;14.47;57.49
8039;BME280;4062;49.844;8.120;2023-04-29T05:14:39;99146.91;;;14.47;57.54
8039;BME280;4062;49.844;8.120;2023-04-29T05:16:40;99150.50;;;14.46;57.57
8039;BME280;4062;49.844;8.120;2023-04-29T05:18:44;99145.19;;;14.46;57.53
8039;BME280;4062;49.844;8.120;2023-04-29T05:20:46;99151.38;;;14.46;57.53
8039;BME280;4062;49.844;8.120;2023-04-29T05:22:48;99154.88;;;14.47;57.59
8039;BME280;4062;49.844;8.120;2023-04-29T05:24:50;99155.81;;;14.46;57.54
8039;BME280;4062;49.844;8.120;2023-04-29T05:26:53;99159.34;;;14.46;57.50
8039;BME280;4062;49.844;8.120;2023-04-29T05:28:55;99159.34;;;14.46;57.42
8039;BME280;4062;49.844;8.120;2023-04-29T05:30:58;99171.75;;;14.46;57.50
8039;BME280;4062;49.844;8.120;2023-04-29T05:32:59;99174.38;;;14.47;57.55
8039;BME280;4062;49.844;8.120;2023-04-29T05:35:02;99176.16;;;14.47;57.43
8039;BME280;4062;49.844;8.120;2023-04-29T05:37:03;99175.28;;;14.46;57.53
8039;BME280;4062;49.844;8.120;2023-04-29T05:39:08;99182.34;;;14.47;57.53
8039;BME280;4062;49.844;8.120;2023-04-29T05:41:10;99181.47;;;14.47;57.57
8039;BME280;4062;49.844;8.120;2023-04-29T05:43:31;99184.13;;;14.47;57.55
8039;BME280;4062;49.844;8.120;2023-04-29T05:45:32;99184.13;;;14.47;57.46
8039;BME280;4062;49.844;8.120;2023-04-29T05:47:34;99192.97;;;14.47;57.49
8039;BME280;4062;49.844;8.120;2023-04-29T05:49:38;99188.59;;;14.46;57.41
8039;BME280;4062;49.844;8.120;2023-04-29T05:51:40;99185.94;;;14.46;57.46
8039;BME280;4062;49.844;8.120;2023-04-29T05:53:41;99195.63;;;14.47;57.38
8039;BME280;4062;49.844;8.120;2023-04-29T05:55:43;99196.56;;;14.46;57.47
8039;BME280;4062;49.844;8.120;2023-04-29T05:57:45;99201.88;;;14.46;57.53
8039;BME280;4062;49.844;8.120;2023-04-29T05:59:46;99195.63;;;14.47;57.55
8039;BME280;4062;49.844;8.120;2023-04-29T06:01:48;99205.38;;;14.47;57.53
8039;BME280;4062;49.844;8.120;2023-04-29T06:03:49;99207.19;;;14.46;57.47
8039;BME280;4062;49.844;8.120;2023-04-29T06:06:16;99204.47;;;14.48;57.43
8039;BME280;4062;49.844;8.120;2023-04-29T06:08:35;99210.69;;;14.47;57.52
8039;BME280;4062;49.844;8.120;2023-04-29T06:10:39;99200.06;;;14.47;57.59
8039;BME280;4062;49.844;8.120;2023-04-29T06:12:41;99214.28;;;14.46;57.40
8039;BME280;4062;49.844;8.120;2023-04-29T06:14:42;99211.59;;;14.47;57.43
8039;BME280;4062;49.844;8.120;2023-04-29T06:16:44;99224.00;;;14.47;57.45
8039;BME280;4062;49.844;8.120;2023-04-29T06:18:45;99212.44;;;14.48;57.52
8039;BME280;4062;49.844;8.120;2023-04-29T06:20:48;99216.00;;;14.47;57.42
8039;BME280;4062;49.844;8.120;2023-04-29T06:22:51;99219.56;;;14.47;57.41
8039;BME280;4062;49.844;8.120;2023-04-29T06:24:52;99215.09;;;14.48;57.50
8039;BME280;4062;49.844;8.120;2023-04-29T06:27:03;99212.44;;;14.48;57.48
8039;BME280;4062;49.844;8.120;2023-04-29T06:29:06;99213.34;;;14.47;57.52
8039;BME280;4062;49.844;8.120;2023-04-29T06:31:08;99216.91;;;14.47;57.47
8039;BME280;4062;49.844;8.120;2023-04-29T06:33:10;99218.69;;;14.47;57.47
8039;BME280;4062;49.844;8.120;2023-04-29T06:35:15;99223.94;;;14.48;57.39
8039;BME280;4062;49.844;8.120;2023-04-29T06:37:32;99225.72;;;14.48;57.50
8039;BME280;4062;49.844;8.120;2023-04-29T06:39:55;99230.19;;;14.47;57.49
8039;BME280;4062;49.844;8.120;2023-04-29T06:42:16;99229.25;;;14.48;57.43
8039;BME280;4062;49.844;8.120;2023-04-29T06:44:40;99234.59;;;14.48;57.49
8039;BME280;4062;49.844;8.120;2023-04-29T06:47:01;99239.00;;;14.48;57.47
8039;BME280;4062;49.844;8.120;2023-04-29T06:49:22;99246.06;;;14.49;57.42
8039;BME280;4062;49.844;8.120;2023-04-29T06:51:23;99246.06;;;14.49;57.44
8039;BME280;4062;49.844;8.120;2023-04-29T06:53:25;99249.66;;;14.48;57.47
8039;BME280;4062;49.844;8.120;2023-04-29T06:55:27;99262.09;;;14.47;57.34
8039;BME280;4062;49.844;8.120;2023-04-29T06:57:28;99263.81;;;14.48;57.50
8039;BME280;4062;49.844;8.120;2023-04-29T06:59:29;99259.44;;;14.47;57.46
8039;BME280;4062;49.844;8.120;2023-04-29T07:01:31;99262.09;;;14.47;57.50
8039;BME280;4062;49.844;8.120;2023-04-29T07:03:32;99266.47;;;14.48;57.56
8039;BME280;4062;49.844;8.120;2023-04-29T07:05:34;99267.34;;;14.49;57.55
8039;BME280;4062;49.844;8.120;2023-04-29T07:07:36;99259.44;;;14.47;57.61
8039;BME280;4062;49.844;8.120;2023-04-29T07:09:38;99264.75;;;14.47;57.47
8039;BME280;4062;49.844;8.120;2023-04-29T07:11:39;99270.06;;;14.47;57.54
8039;BME280;4062;49.844;8.120;2023-04-29T07:13:41;99263.81;;;14.48;57.46
8039;BME280;4062;49.844;8.120;2023-04-29T07:15:42;99268.25;;;14.48;57.43
8039;BME280;4062;49.844;8.120;2023-04-29T07:17:44;99281.53;;;14.48;57.56
8039;BME280;4062;49.844;8.120;2023-04-29T07:19:45;99280.69;;;14.47;57.50
8039;BME280;4062;49.844;8.120;2023-04-29T07:21:46;99284.22;;;14.48;57.47
8039;BME280;4062;49.844;8.120;2023-04-29T07:23:48;99278.88;;;14.48;57.50
8039;BME280;4062;49.844;8.120;2023-04-29T07:25:49;99284.22;;;14.48;57.41
8039;BME280;4062;49.844;8.120;2023-04-29T07:27:51;99283.34;;;14.47;57.48
8039;BME280;4062;49.844;8.120;2023-04-29T07:29:54;99298.38;;;14.48;57.47
8039;BME280;4062;49.844;8.120;2023-04-29T07:31:55;99305.47;;;14.48;57.50
8039;BME280;4062;49.844;8.120;2023-04-29T07:33:57;99302.81;;;14.48;57.47
8039;BME280;4062;49.844;8.120;2023-04-29T07:36:02;99309.00;;;14.48;57.45
8039;BME280;4062;49.844;8.120;2023-04-29T07:38:05;99308.13;;;14.48;57.40
8039;BME280;4062;49.844;8.120;2023-04-29T07:40:07;99307.28;;;14.47;57.43
8039;BME280;4062;49.844;8.120;2023-04-29T07:42:08;99309.88;;;14.49;57.37
8039;BME280;4062;49.844;8.120;2023-04-29T07:44:10;99306.34;;;14.48;57.47
8039;BME280;4062;49.844;8.120;2023-04-29T07:46:11;99310.78;;;14.48;57.48
8039;BME280;4062;49.844;8.120;2023-04-29T07:48:13;99311.66;;;14.48;57.38
8039;BME280;4062;49.844;8.120;2023-04-29T07:50:14;99320.50;;;14.49;57.52
8039;BME280;4062;49.844;8.120;2023-04-29T07:52:16;99324.06;;;14.48;57.42
8039;BME280;4062;49.844;8.120;2023-04-29T07:54:18;99332.94;;;14.48;57.46
8039;BME280;4062;49.844;8.120;2023-04-29T07:56:23;99333.88;;;14.47;57.49
8039;BME280;4062;49.844;8.120;2023-04-29T07:58:25;99336.44;;;14.49;57.35
8039;BME280;4062;49.844;8.120;2023-04-29T08:00:28;99327.63;;;14.48;57.54
8039;BME280;4062;49.844;8.120;2023-04-29T08:02:30;99329.41;;;14.48;57.38
8039;BME280;4062;49.844;8.120;2023-04-29T08:04:32;99332.94;;;14.48;57.54
8039;BME280;4062;49.844;8.120;2023-04-29T08:06:41;99331.13;;;14.49;57.41
8039;BME280;4062;49.844;8.120;2023-04-29T08:08:45;99340.03;;;14.48;57.42
8039;BME280;4062;49.844;8.120;2023-04-29T08:10:47;99342.69;;;14.48;57.53
8039;BME280;4062;49.844;8.120;2023-04-29T08:12:49;99347.06;;;14.49;57.49
8039;BME280;4062;49.844;8.120;2023-04-29T08:14:50;99348.88;;;14.48;57.56
8039;BME280;4062;49.844;8.120;2023-04-29T08:16:51;99352.41;;;14.49;57.48
8039;BME280;4062;49.844;8.120;2023-04-29T08:18:54;99358.63;;;14.48;57.35
8039;BME280;4062;49.844;8.120;2023-04-29T08:20:56;99357.72;;;14.49;57.46
8039;BME280;4062;49.844;8.120;2023-04-29T08:22:58;99351.53;;;14.48;57.61
8039;BME280;4062;49.844;8.120;2023-04-29T08:25:01;99363.97;;;14.48;57.33
8039;BME280;4062;49.844;8.120;2023-04-29T08:27:03;99363.97;;;14.48;57.50
8039;BME280;4062;49.844;8.120;2023-04-29T08:29:04;99369.28;;;14.48;57.46
8039;BME280;4062;49.844;8.120;2023-04-29T08:31:06;99370.16;;;14.48;57.50
8039;BME280;4062;49.844;8.120;2023-04-29T08:33:08;99378.13;;;14.48;57.53
8039;BME280;4062;49.844;8.120;2023-04-29T08:35:09;99371.94;;;14.48;57.46
8039;BME280;4062;49.844;8.120;2023-04-29T08:37:11;99377.25;;;14.48;57.56
8039;BME280;4062;49.844;8.120;2023-04-29T08:39:12;99382.56;;;14.48;57.45
8039;BME280;4062;49.844;8.120;2023-04-29T08:41:14;99375.47;;;14.48;57.41
8039;BME280;4062;49.844;8.120;2023-04-29T08:43:16;99383.44;;;14.48;57.40
8039;BME280;4062;49.844;8.120;2023-04-29T08:45:19;99378.13;;;14.48;57.42
8039;BME280;4062;49.844;8.120;2023-04-29T08:47:23;99384.31;;;14.49;57.46
8039;BME280;4062;49.844;8.120;2023-04-29T08:49:24;99384.31;;;14.49;57.38
8039;BME280;4062;49.844;8.120;2023-04-29T08:51:26;99394.06;;;14.48;57.38
8039;BME280;4062;49.844;8.120;2023-04-29T08:53:28;99394.06;;;14.48;57.45
8039;BME280;4062;49.844;8.120;2023-04-29T08:55:29;99394.06;;;14.48;57.52
8039;BME280;4062;49.844;8.120;2023-04-29T08:57:34;99391.41;;;14.48;57.45
8039;BME280;4062;49.844;8.120;2023-04-29T08:59:39;99385.22;;;14.48;57.48
8039;BME280;4062;49.844;8.120;2023-04-29T09:01:42;99394.06;;;14.48;57.49
8039;BME280;4062;49.844;8.120;2023-04-29T09:06:29;99399.41;;;14.48;57.47
8039;BME280;4062;49.844;8.120;2023-04-29T09:08:30;99404.72;;;14.48;57.56
8039;BME280;4062;49.844;8.120;2023-04-29T09:10:34;99413.53;;;14.49;57.44
8039;BME280;4062;49.844;8.120;2023-04-29T09:12:40;99410.03;;;14.48;57.42
8039;BME280;4062;49.844;8.120;2023-04-29T09:14:41;99413.53;;;14.49;57.39
8039;BME280;4062;49.844;8.120;2023-04-29T09:16:46;99410.88;;;14.49;57.60
8039;BME280;4062;49.844;8.120;2023-04-29T09:18:51;99410.88;;;14.49;57.44
8039;BME280;4062;49.844;8.120;2023-04-29T09:20:53;99411.81;;;14.48;57.50
8039;BME280;4062;49.844;8.120;2023-04-29T09:22:59;99412.69;;;14.48;57.39
8039;BME280;4062;49.844;8.120;2023-04-29T09:25:14;99418.00;;;14.48;57.36
8039;BME280;4062;49.844;8.120;2023-04-29T09:27:28;99423.31;;;14.48;57.54
8039;BME280;4062;49.844;8.120;2023-04-29T09:29:30;99424.19;;;14.49;57.56
8039;BME280;4062;49.844;8.120;2023-04-29T09:31:33;99433.03;;;14.49;57.53
8039;BME280;4062;49.844;8.120;2023-04-29T09:33:51;99430.38;;;14.49;57.49
8039;BME280;4062;49.844;8.120;2023-04-29T09:35:54;99425.97;;;14.48;57.53
8039;BME280;4062;49.844;8.120;2023-04-29T09:38:13;99429.50;;;14.49;57.48
8039;BME280;4062;49.844;8.120;2023-04-29T09:40:28;99442.78;;;14.49;57.46
8039;BME280;4062;49.844;8.120;2023-04-29T09:42:41;99433.97;;;14.48;57.52
8039;BME280;4062;49.844;8.120;2023-04-29T09:44:43;99442.78;;;14.49;57.46
8039;BME280;4062;49.844;8.120;2023-04-29T09:47:04;99440.13;;;14.49;57.53
8039;BME280;4062;49.844;8.120;2023-04-29T09:51:24;99447.25;;;14.48;57.52
8039;BME280;4062;49.844;8.120;2023-04-29T09:53:30;99451.69;;;14.48;57.47
8039;BME280;4062;49.844;8.120;2023-04-29T09:55:31;99455.22;;;14.48;57.47
8039;BME280;4062;49.844;8.120;2023-04-29T09:57:39;99456.06;;;14.49;57.55
8039;BME280;4062;49.844;8.120;2023-04-29T09:59:42;99456.06;;;14.49;57.41
8039;BME280;4062;49.844;8.120;2023-04-29T10:01:45;99454.31;;;14.49;57.48
8039;BME280;4062;49.844;8.120;2023-04-29T10:03:49;99469.38;;;14.49;57.41
8039;BME280;4062;49.844;8.120;2023-04-29T10:05:53;99464.06;;;14.49;57.48
8039;BME280;4062;49.844;8.120;2023-04-29T10:07:56;99453.41;;;14.49;57.46
8039;BME280;4062;49.844;8.120;2023-04-29T10:10:04;99457.00;;;14.48;57.45
8039;BME280;4062;49.844;8.120;2023-04-29T10:12:07;99458.72;;;14.49;57.46
8039;BME280;4062;49.844;8.120;2023-04-29T10:14:20;99458.72;;;14.49;57.47
8039;BME280;4062;49.844;8.120;2023-04-29T10:18:33;99458.72;;;14.49;57.45
8039;BME280;4062;49.844;8.120;2023-04-29T10:20:37;99465.84;;;14.48;57.41
8039;BME280;4062;49.844;8.120;2023-04-29T10:22:48;99466.72;;;14.49;57.37
8039;BME280;4062;49.844;8.120;2023-04-29T10:24:50;99471.09;;;14.50;57.55
8039;BME280;4062;49.844;8.120;2023-04-29T10:26:54;99464.06;;;14.49;57.51
8039;BME280;4062;49.844;8.120;2023-04-29T10:28:57;99458.72;;;14.49;57.47
8039;BME280;4062;49.844;8.120;2023-04-29T10:31:04;99470.25;;;14.49;57.48
8039;BME280;4062;49.844;8.120;2023-04-29T10:33:09;99457.88;;;14.48;57.52
8039;BME280;4062;49.844;8.120;2023-04-29T10:35:12;99467.63;;;14.48;57.52
8039;BME280;4062;49.844;8.120;2023-04-29T10:37:16;99465.84;;;14.48;57.49
8039;BME280;4062;49.844;8.120;2023-04-29T10:41:45;99462.28;;;14.49;57.46
8039;BME280;4062;49.844;8.120;2023-04-29T10:43:47;99456.97;;;14.49;57.44
8039;BME280;4062;49.844;8.120;2023-04-29T10:45:49;99464.94;;;14.49;57.34
8039;BME280;4062;49.844;8.120;2023-04-29T10:50:07;99458.72;;;14.49;57.40
8039;BME280;4062;49.844;8.120;2023-04-29T10:52:16;99467.59;;;14.49;57.54
8039;BME280;4062;49.844;8.120;2023-04-29T10:54:18;99458.72;;;14.49;57.42
8039;BME280;4062;49.844;8.120;2023-04-29T11:00:41;99453.41;;;14.49;57.53
8039;BME280;4062;49.844;8.120;2023-04-29T11:02:42;99459.63;;;14.49;57.48
8039;BME280;4062;49.844;8.120;2023-04-29T11:05:10;99445.44;;;14.49;57.52
8039;BME280;4062;49.844;8.120;2023-04-29T11:07:26;99449.84;;;14.50;57.52
8039;BME280;4062;49.844;8.120;2023-04-29T11:09:31;99450.69;;;14.50;57.43
8039;BME280;4062;49.844;8.120;2023-04-29T11:12:01;99449.84;;;14.50;57.46
8039;BME280;4062;49.844;8.120;2023-04-29T11:14:08;99448.97;;;14.49;57.42
8039;BME280;4062;49.844;8.120;2023-04-29T11:16:11;99447.19;;;14.50;57.40
8039;BME280;4062;49.844;8.120;2023-04-29T11:18:14;99448.09;;;14.49;57.41
8039;BME280;4062;49.844;8.120;2023-04-29T11:20:16;99446.31;;;14.49;57.38
8039;BME280;4062;49.844;8.120;2023-04-29T11:24:21;99443.66;;;14.49;57.54
8039;BME280;4062;49.844;8.120;2023-04-29T11:26:23;99442.78;;;14.49;57.52
8039;BME280;4062;49.844;8.120;2023-04-29T11:28:27;99447.19;;;14.50;57.54
8039;BME280;4062;49.844;8.120;2023-04-29T11:30:29;99449.84;;;14.50;57.44
8039;BME280;4062;49.844;8.120;2023-04-29T11:32:37;99446.31;;;14.49;57.42
8039;BME280;4062;49.844;8.120;2023-04-29T11:34:40;99449.84;;;14.50;57.53
8039;BME280;4062;49.844;8.120;2023-04-29T11:36:41;99448.09;;;14.49;57.42
8039;BME280;4062;49.844;8.120;2023-04-29T11:38:43;99448.97;;;14.49;57.48
8039;BME280;4062;49.844;8.120;2023-04-29T11:40:49;99455.16;;;14.50;57.48
8039;BME280;4062;49.844;8.120;2023-04-29T11:42:50;99460.47;;;14.50;57.51
8039;BME280;4062;49.844;8.120;2023-04-29T11:44:55;99455.16;;;14.50;57.45
8039;BME280;4062;49.844;8.120;2023-04-29T11:47:02;99455.16;;;14.50;57.50
8039;BME280;4062;49.844;8.120;2023-04-29T11:49:03;99453.34;;;14.50;57.46